Time;durP1;ratioP1;P1;durP2;ratioP2;P2;SDS_P1;SDS_P2;PMS_P1;PMS_P2;Temp;Humidity;BMP_temperature;BMP_pressure;BME280_temperature;BME280_humidity;BME280_pressure;Samples;Min_cycle;Max_cycle;Signal;HPM_P1;HPM_P2
2022/07/11 01:02:14;;;;;;;;;;;;;;;;;;;;;
2022/07/11 02:29:35;;;;;;;6.30;1.70;;;15.60;99.90;;;;;;4608433;31;20405;-77
2022/07/11 03:24:36;;;;;;;;;;;;;;;;;;;;;
2022/07/11 03:28:20;;;;;;;5.47;1.40;;;15.50;99.90;;;;;;4515914;31;20489;-78
2022/07/11 05:45:27;;;;;;;1.75;0.80;;;16.10;99.90;;;;;;4542707;31;20620;-77
2022/07/11 05:52:42;;;;;;;1.65;0.70;;;16.30;99.90;;;;;;4561817;31;20539;-73
2022/07/11 05:56:13;;;;;;;3.92;1.00;;;16.40;99.90;;;;;;4563338;31;20132;-75
2022/07/11 06:02:58;;;;;;;4.07;1.00;;;16.30;99.90;;;;;;4680013;30;20090;-77
2022/07/11 06:05:34;;;;;;;;;;;;;;;;;;;;;
2022/07/11 06:09:02;;;;;;;;;;;;;;;;;;;;;
2022/07/11 06:11:52;;;;;;;1.98;0.90;;;16.40;99.90;;;;;;4679828;30;20284;-79
2022/07/11 06:14:18;;;;;;;1.20;0.80;;;16.40;99.90;;;;;;4702944;30;20048;-79
2022/07/11 06:16:44;;;;;;;4.32;1.00;;;16.40;99.90;;;;;;4721028;30;20109;-80
2022/07/11 06:19:10;;;;;;;5.03;1.00;;;16.50;99.90;;;;;;4743986;30;20047;-80
2022/07/11 06:21:36;;;;;;;1.88;0.80;;;16.60;99.90;;;;;;4749986;30;20098;-78
2022/07/11 06:24:01;;;;;;;2.17;0.85;;;16.60;99.90;;;;;;4721657;30;20135;-80
2022/07/11 06:26:29;;;;;;;1.85;0.65;;;16.50;99.90;;;;;;4716099;30;20036;-79
2022/07/11 06:28:55;;;;;;;0.90;0.50;;;16.40;99.90;;;;;;4741012;30;20043;-79
2022/07/11 06:31:21;;;;;;;0.70;0.65;;;16.40;99.90;;;;;;4741935;30;20485;-79
2022/07/11 06:33:47;;;;;;;0.50;0.50;;;16.40;99.90;;;;;;4771554;30;20040;-79
2022/07/11 06:36:13;;;;;;;1.10;0.57;;;16.40;99.90;;;;;;4756090;30;20501;-79
2022/07/11 06:38:39;;;;;;;0.70;0.60;;;16.40;99.90;;;;;;4756859;30;20134;-79
2022/07/11 06:41:04;;;;;;;1.08;0.50;;;16.40;99.90;;;;;;4770997;30;20048;-79
2022/07/11 06:43:30;;;;;;;0.80;0.60;;;16.40;99.90;;;;;;4742699;30;20090;-80
2022/07/11 06:45:57;;;;;;;1.90;0.40;;;16.50;99.90;;;;;;4740985;30;20067;-80
2022/07/11 06:48:26;;;;;;;0.77;0.40;;;16.70;99.90;;;;;;4738786;30;20083;-80
2022/07/11 06:50:52;;;;;;;0.40;0.40;;;16.90;99.90;;;;;;4724251;30;20072;-73
2022/07/11 06:53:18;;;;;;;0.82;0.43;;;17.20;99.90;;;;;;4738641;30;20079;-74
2022/07/11 06:55:44;;;;;;;0.32;0.30;;;17.60;99.90;;;;;;4738915;30;20052;-74
2022/07/11 06:58:31;;;;;;;4.25;0.50;;;17.80;99.90;;;;;;4754215;30;20414;-75
2022/07/11 07:00:57;;;;;;;0.68;0.35;;;17.90;99.90;;;;;;4756764;30;20048;-73
2022/07/11 07:03:23;;;;;;;1.98;0.40;;;17.90;99.90;;;;;;4756675;30;20392;-74
2022/07/11 07:05:49;;;;;;;1.05;0.40;;;17.70;99.90;;;;;;4756637;30;20052;-72
2022/07/11 07:08:16;;;;;;;0.60;0.50;;;17.50;99.90;;;;;;4739121;30;20055;-74
2022/07/11 07:10:42;;;;;;;0.77;0.35;;;17.50;99.90;;;;;;4738939;30;20051;-77
2022/07/11 07:13:08;;;;;;;0.55;0.40;;;17.70;99.90;;;;;;4753500;30;20370;-76
2022/07/11 07:15:34;;;;;;;0.50;0.40;;;17.70;99.90;;;;;;4756394;30;20105;-74
2022/07/11 07:17:59;;;;;;;0.75;0.50;;;17.70;99.90;;;;;;4726476;30;20382;-75
2022/07/11 07:20:25;;;;;;;2.72;0.60;;;17.80;99.90;;;;;;4739037;30;20113;-78
2022/07/11 07:22:51;;;;;;;0.75;0.73;;;17.70;99.90;;;;;;4736463;30;20047;-73
2022/07/11 07:25:17;;;;;;;0.95;0.40;;;17.80;99.90;;;;;;4756376;30;20051;-74
2022/07/11 07:27:43;;;;;;;0.35;0.35;;;17.90;99.90;;;;;;4725282;30;20556;-71
2022/07/11 07:30:09;;;;;;;0.70;0.40;;;17.90;99.90;;;;;;4721360;30;20060;-73
2022/07/11 07:32:34;;;;;;;1.00;0.43;;;18.00;99.90;;;;;;4709116;30;20048;-71
2022/07/11 07:35:00;;;;;;;0.98;0.40;;;18.00;99.90;;;;;;4738218;30;20130;-71
2022/07/11 07:37:26;;;;;;;0.32;0.30;;;18.20;99.90;;;;;;4748581;30;20055;-71
2022/07/11 07:39:52;;;;;;;;;;;18.40;99.90;;;;;;4756239;30;20051;-78
2022/07/11 07:42:18;;;;;;;0.40;0.40;;;18.50;99.90;;;;;;4741081;30;20364;-73
2022/07/11 07:44:43;;;;;;;0.75;0.40;;;18.40;99.90;;;;;;4756136;30;20052;-74
2022/07/11 07:47:12;;;;;;;4.00;0.43;;;18.30;99.90;;;;;;4760221;30;20451;-74
2022/07/11 07:49:37;;;;;;;3.15;0.60;;;18.40;99.90;;;;;;4741179;30;20059;-73
2022/07/11 07:52:06;;;;;;;1.20;0.32;;;18.40;99.90;;;;;;4740593;30;20048;-73
2022/07/11 07:54:38;;;;;;;0.95;0.40;;;18.40;99.90;;;;;;4741337;30;20482;-79
2022/07/11 07:57:04;;;;;;;0.70;0.40;;;18.30;99.90;;;;;;4762182;30;20047;-72
2022/07/11 07:59:30;;;;;;;1.77;0.30;;;18.20;99.90;;;;;;4758485;30;20497;-78
2022/07/11 08:01:56;;;;;;;0.68;0.30;;;18.30;99.90;;;;;;4755447;30;20047;-72
2022/07/11 08:04:21;;;;;;;1.17;0.40;;;18.30;99.90;;;;;;4740959;30;20126;-77
2022/07/11 08:06:47;;;;;;;0.73;0.30;;;18.20;99.90;;;;;;4744770;30;20546;-78
2022/07/11 08:09:13;;;;;;;2.33;0.52;;;18.20;99.90;;;;;;4773116;30;20046;-77
2022/07/11 08:11:39;;;;;;;0.45;0.32;;;18.20;99.90;;;;;;4763261;30;20431;-77
2022/07/11 08:14:07;;;;;;;0.22;0.22;;;18.30;99.90;;;;;;4754595;30;20122;-76
2022/07/11 08:16:36;;;;;;;0.88;0.38;;;18.50;99.90;;;;;;4753467;30;20113;-75
2022/07/11 08:19:04;;;;;;;1.17;0.50;;;18.70;99.90;;;;;;4752988;30;20056;-75
2022/07/11 08:21:31;;;;;;;0.80;0.50;;;18.70;99.90;;;;;;4754637;30;20043;-74
2022/07/11 08:24:03;;;;;;;1.27;0.40;;;18.60;99.90;;;;;;4732602;30;20035;-80
2022/07/11 08:26:35;;;;;;;0.73;0.40;;;18.50;99.90;;;;;;4757901;30;20051;-76
2022/07/11 08:29:02;;;;;;;0.30;0.30;;;18.30;99.90;;;;;;4778088;29;20039;-75
2022/07/11 08:31:28;;;;;;;2.70;0.50;;;18.30;99.90;;;;;;4737524;30;20048;-74
2022/07/11 08:34:32;;;;;;;0.50;0.40;;;18.80;99.90;;;;;;4736535;30;20120;-75
2022/07/11 08:37:10;;;;;;;1.25;0.38;;;19.30;99.90;;;;;;4770756;30;20792;-75
2022/07/11 08:39:36;;;;;;;0.30;0.30;;;19.30;99.90;;;;;;4772108;30;20063;-79
2022/07/11 08:42:02;;;;;;;0.75;0.40;;;18.90;99.90;;;;;;4786797;30;20535;-77
2022/07/11 08:44:28;;;;;;;0.82;0.40;;;18.50;99.90;;;;;;4760947;30;20509;-76
2022/07/11 08:46:54;;;;;;;1.65;0.50;;;18.50;99.90;;;;;;4753478;30;20185;-75
2022/07/11 08:49:21;;;;;;;0.50;0.40;;;18.70;99.90;;;;;;4754001;30;20068;-74
2022/07/11 08:51:49;;;;;;;2.72;0.55;;;19.10;99.90;;;;;;4732276;30;20052;-75
2022/07/11 08:54:14;;;;;;;0.30;0.30;;;19.50;99.90;;;;;;4757206;30;20058;-76
2022/07/11 08:56:44;;;;;;;1.17;0.40;;;19.70;99.90;;;;;;4760723;30;20051;-76
2022/07/11 08:59:12;;;;;;;1.45;0.50;;;19.70;99.90;;;;;;4756161;30;20144;-76
2022/07/11 09:01:44;;;;;;;0.63;0.50;;;19.70;99.90;;;;;;4723212;30;20391;-76
2022/07/11 09:04:11;;;;;;;2.05;0.50;;;19.70;99.90;;;;;;4722790;30;20052;-76
2022/07/11 09:06:37;;;;;;;0.60;0.30;;;19.80;99.90;;;;;;4722699;30;20052;-76
2022/07/11 09:09:03;;;;;;;1.30;0.40;;;19.80;99.90;;;;;;4717016;30;20048;-75
2022/07/11 09:11:52;;;;;;;1.45;0.50;;;19.60;99.90;;;;;;4719774;30;20052;-77
2022/07/11 09:14:28;;;;;;;0.77;0.40;;;19.70;99.90;;;;;;4719809;30;20087;-78
2022/07/11 09:16:55;;;;;;;0.57;0.38;;;19.90;99.90;;;;;;4719405;30;20156;-76
2022/07/11 09:19:23;;;;;;;1.20;0.30;;;20.00;99.90;;;;;;4727282;30;20055;-75
2022/07/11 09:27:44;;;;;;;2.03;0.60;;;19.90;99.90;;;;;;4730345;30;20128;-75
2022/07/11 09:30:17;;;;;;;1.88;0.40;;;19.90;99.90;;;;;;4732639;30;20391;-75
2022/07/11 09:33:05;;;;;;;1.02;0.35;;;19.90;99.90;;;;;;4737083;30;20497;-75
2022/07/11 09:35:33;;;;;;;0.20;0.20;;;20.30;99.90;;;;;;4722672;30;20094;-77
2022/07/11 09:38:02;;;;;;;5.53;0.43;;;20.80;99.90;;;;;;4736960;30;20143;-76
2022/07/11 09:40:27;;;;;;;0.82;0.30;;;20.90;99.90;;;;;;4728104;30;20055;-75
2022/07/11 09:42:55;;;;;;;3.85;0.52;;;20.80;99.90;;;;;;4740484;30;20130;-70
2022/07/11 09:45:22;;;;;;;2.13;0.40;;;20.70;99.90;;;;;;4740382;30;20131;-75
2022/07/11 09:47:50;;;;;;;1.40;0.40;;;20.40;99.90;;;;;;4752738;30;20111;-72
2022/07/11 09:50:24;;;;;;;0.30;0.30;;;20.40;99.90;;;;;;4744526;30;20048;-73
2022/07/11 09:53:08;;;;;;;0.57;0.40;;;20.30;99.90;;;;;;4758033;30;20131;-72
2022/07/11 09:55:45;;;;;;;1.73;0.80;;;20.20;99.90;;;;;;4743454;30;20499;-72
2022/07/11 09:58:13;;;;;;;2.80;0.40;;;20.10;99.90;;;;;;4751393;30;20052;-73
2022/07/11 10:00:40;;;;;;;0.30;0.30;;;20.10;99.90;;;;;;4740200;30;20058;-73
2022/07/11 10:03:07;;;;;;;1.17;0.50;;;20.20;99.90;;;;;;4754643;30;20471;-73
2022/07/11 10:05:33;;;;;;;0.93;0.40;;;20.20;99.90;;;;;;4739772;30;20052;-72
2022/07/11 10:08:00;;;;;;;;;;;20.30;99.90;;;;;;4744089;30;20051;-73
2022/07/11 10:10:27;;;;;;;0.30;0.30;;;20.40;99.90;;;;;;4773407;30;19995;-72
2022/07/11 10:12:53;;;;;;;0.50;0.30;;;20.30;99.90;;;;;;4757555;30;20110;-72
2022/07/11 10:15:28;;;;;;;0.77;0.40;;;20.40;99.90;;;;;;4757294;30;20048;-73
2022/07/11 10:18:08;;;;;;;0.38;0.30;;;20.60;99.90;;;;;;4747971;30;20113;-73
2022/07/11 10:20:39;;;;;;;2.17;0.32;;;20.70;99.90;;;;;;4739902;30;20601;-71
2022/07/11 10:23:31;;;;;;;0.47;0.30;;;20.50;99.90;;;;;;4755430;30;20168;-71
2022/07/11 10:26:08;;;;;;;0.52;0.40;;;20.60;99.90;;;;;;4739717;30;20040;-74
2022/07/11 10:28:38;;;;;;;0.40;0.30;;;20.80;99.90;;;;;;4747537;30;20420;-72
2022/07/11 10:31:04;;;;;;;1.27;0.50;;;20.80;99.90;;;;;;4757025;30;20047;-72
2022/07/11 10:33:30;;;;;;;1.85;0.47;;;20.80;99.90;;;;;;4742530;30;20048;-70
2022/07/11 10:35:58;;;;;;;0.32;0.30;;;20.70;99.90;;;;;;4771892;30;20113;-70
2022/07/11 10:38:24;;;;;;;0.70;0.35;;;20.70;99.90;;;;;;4750200;30;20505;-71
2022/07/11 10:40:49;;;;;;;;;;;20.50;99.90;;;;;;4725557;30;20059;-71
2022/07/11 10:43:33;;;;;;;0.95;0.40;;;20.20;99.90;;;;;;4743598;30;20359;-72
2022/07/11 10:46:07;;;;;;;1.60;0.80;;;20.20;99.90;;;;;;4756519;30;20148;-70
2022/07/11 10:48:35;;;;;;;2.05;0.40;;;20.20;99.90;;;;;;4741431;30;20097;-72
2022/07/11 10:51:32;;;;;;;2.15;0.50;;;20.10;99.90;;;;;;4756708;30;20493;-71
2022/07/11 10:54:12;;;;;;;0.30;0.30;;;20.20;99.90;;;;;;4730319;30;20077;-72
2022/07/11 10:57:15;;;;;;;1.38;0.50;;;20.30;99.90;;;;;;4736315;30;20048;-70
2022/07/11 11:00:00;;;;;;;1.23;0.40;;;20.50;99.90;;;;;;4700226;30;20132;-70
2022/07/11 11:02:30;;;;;;;1.60;0.40;;;20.60;99.90;;;;;;4721695;30;20487;-70
2022/07/11 11:05:00;;;;;;;1.75;0.50;;;20.80;99.90;;;;;;4721302;30;20048;-66
2022/07/11 11:07:35;;;;;;;2.15;0.40;;;20.80;99.90;;;;;;4754553;30;20127;-68
2022/07/11 11:10:17;;;;;;;1.25;0.50;;;21.00;99.90;;;;;;4736959;30;20084;-71
2022/07/11 11:13:05;;;;;;;1.52;0.52;;;21.00;99.90;;;;;;4752300;30;20048;-68
2022/07/11 11:15:32;;;;;;;2.10;0.50;;;20.80;99.90;;;;;;4742237;30;20044;-70
2022/07/11 11:18:18;;;;;;;0.60;0.40;;;20.70;99.90;;;;;;4725823;30;20067;-67
2022/07/11 11:20:43;;;;;;;0.98;0.40;;;20.70;99.90;;;;;;4736163;30;20044;-69
2022/07/11 11:23:10;;;;;;;0.60;0.40;;;20.60;99.90;;;;;;4737276;30;20386;-70
2022/07/11 11:25:36;;;;;;;0.43;0.30;;;20.80;99.90;;;;;;4754372;30;20050;-68
2022/07/11 11:28:04;;;;;;;0.85;0.32;;;21.00;99.90;;;;;;4736157;30;20419;-68
2022/07/11 11:30:33;;;;;;;3.22;0.70;;;21.20;99.90;;;;;;4752637;30;20123;-69
2022/07/11 11:32:59;;;;;;;1.67;0.50;;;21.10;99.90;;;;;;4737426;30;20068;-67
2022/07/11 11:35:25;;;;;;;0.80;0.55;;;20.80;99.90;;;;;;4736940;30;20044;-72
2022/07/11 11:37:53;;;;;;;1.10;0.57;;;20.80;99.90;;;;;;4736470;30;20105;-69
2022/07/11 11:40:19;;;;;;;3.58;0.50;;;20.80;99.90;;;;;;4754387;30;20488;-69
2022/07/11 11:42:46;;;;;;;1.85;0.60;;;20.90;99.90;;;;;;4735397;30;20109;-69
2022/07/11 11:45:12;;;;;;;1.33;0.63;;;21.10;99.90;;;;;;4736346;30;20048;-72
2022/07/11 11:47:48;;;;;;;1.50;0.68;;;21.10;99.90;;;;;;4738177;30;20083;-71
2022/07/11 11:50:14;;;;;;;1.00;0.55;;;21.40;99.90;;;;;;4736436;30;20056;-69
2022/07/11 11:52:40;;;;;;;;;;;21.50;99.70;;;;;;4746334;30;20066;-70
2022/07/11 11:55:09;;;;;;;1.65;0.60;;;21.20;99.80;;;;;;4736710;30;19922;-66
2022/07/11 11:57:34;;;;;;;0.50;0.50;;;21.20;99.90;;;;;;4736957;30;20438;-69
2022/07/11 12:00:00;;;;;;;0.82;0.50;;;21.30;99.90;;;;;;4753005;30;20118;-69
2022/07/11 12:02:28;;;;;;;2.33;0.63;;;21.30;99.90;;;;;;4736421;30;20486;-68
2022/07/11 12:04:54;;;;;;;1.30;0.60;;;21.10;99.90;;;;;;4751089;30;20056;-68
2022/07/11 12:07:26;;;;;;;2.17;0.75;;;21.30;99.90;;;;;;4741294;30;20071;-69
2022/07/11 12:09:55;;;;;;;3.13;0.70;;;21.30;99.90;;;;;;4736839;30;22147;-67
2022/07/11 12:12:43;;;;;;;1.13;0.60;;;21.10;99.90;;;;;;4722115;30;20051;-69
2022/07/11 12:15:31;;;;;;;4.13;0.90;;;20.80;99.90;;;;;;4737263;30;20055;-68
2022/07/11 12:17:59;;;;;;;3.30;0.90;;;20.70;99.90;;;;;;4735372;30;20502;-69
2022/07/11 12:20:40;;;;;;;2.20;1.00;;;20.90;99.90;;;;;;4736029;30;20105;-68
2022/07/11 12:23:09;;;;;;;1.90;0.82;;;20.90;99.90;;;;;;4750904;30;20412;-69
2022/07/11 12:25:35;;;;;;;2.00;0.70;;;21.00;99.90;;;;;;4750550;30;20400;-70
2022/07/11 12:28:01;;;;;;;;;;;21.20;99.90;;;;;;4738886;30;20109;-69
2022/07/11 12:30:26;;;;;;;1.63;0.55;;;21.10;99.90;;;;;;4738807;30;19926;-71
2022/07/11 12:33:02;;;;;;;;;;;21.10;99.90;;;;;;4737668;30;20490;-70
2022/07/11 12:35:28;;;;;;;1.30;0.50;;;21.00;99.90;;;;;;4735623;30;19922;-71
2022/07/11 12:37:54;;;;;;;2.13;0.80;;;21.00;99.90;;;;;;4738060;30;20056;-70
2022/07/11 12:40:21;;;;;;;2.58;0.95;;;21.00;99.90;;;;;;4720641;30;20423;-70
2022/07/11 12:42:47;;;;;;;1.60;0.70;;;21.20;99.90;;;;;;4750017;30;20052;-71
2022/07/11 12:45:15;;;;;;;4.07;1.00;;;21.30;99.90;;;;;;4730127;30;20048;-68
2022/07/11 12:47:53;;;;;;;1.38;0.80;;;21.40;99.90;;;;;;4753657;30;20383;-77
2022/07/11 12:50:24;;;;;;;1.90;0.90;;;21.20;99.90;;;;;;4733236;30;20135;-71
2022/07/11 12:52:52;;;;;;;9.52;1.00;;;21.10;99.90;;;;;;4737085;30;20056;-68
2022/07/11 12:55:27;;;;;;;1.35;0.63;;;21.10;99.90;;;;;;4749132;30;20048;-70
2022/07/11 12:58:02;;;;;;;3.38;0.93;;;21.10;99.90;;;;;;4754120;30;20550;-67
2022/07/11 13:00:28;;;;;;;2.65;1.23;;;21.10;99.90;;;;;;4723189;30;20056;-70
2022/07/11 13:02:54;;;;;;;1.00;0.60;;;21.00;99.90;;;;;;4734565;30;20055;-70
2022/07/11 13:05:20;;;;;;;;;;;20.90;99.90;;;;;;4705738;30;20056;-70
2022/07/11 13:13:14;;;;;;;2.78;1.00;;;20.70;99.90;;;;;;4754784;30;20093;-73
2022/07/11 13:15:39;;;;;;;;;;;20.80;99.90;;;;;;4756895;30;20051;-72
2022/07/11 13:18:05;;;;;;;1.35;0.60;;;20.90;99.90;;;;;;4753140;30;19918;-72
2022/07/11 13:20:32;;;;;;;;;;;20.90;99.90;;;;;;4737805;30;20042;-70
2022/07/11 13:22:58;;;;;;;1.17;0.60;;;20.90;99.90;;;;;;4739577;30;19925;-75
2022/07/11 13:25:24;;;;;;;;;;;20.90;99.90;;;;;;4743641;30;20060;-72
2022/07/11 13:27:51;;;;;;;5.05;0.80;;;21.00;99.90;;;;;;4732891;30;19918;-72
2022/07/11 13:30:20;;;;;;;2.38;0.82;;;21.10;99.90;;;;;;4741612;30;20047;-71
2022/07/11 13:32:50;;;;;;;3.28;0.70;;;21.20;99.90;;;;;;4736192;30;20044;-75
2022/07/11 13:35:18;;;;;;;1.70;0.80;;;21.10;99.90;;;;;;4735620;30;20052;-71
2022/07/11 13:37:45;;;;;;;1.15;0.60;;;21.00;99.90;;;;;;4754313;30;20059;-76
2022/07/11 13:40:13;;;;;;;1.17;0.70;;;20.90;99.90;;;;;;4738954;30;20063;-75
2022/07/11 13:42:40;;;;;;;2.35;0.85;;;21.10;99.90;;;;;;4739023;30;20662;-69
2022/07/11 13:45:08;;;;;;;2.85;0.95;;;21.00;99.90;;;;;;4753281;30;20427;-69
2022/07/11 13:47:33;;;;;;;1.77;0.80;;;21.00;99.90;;;;;;4754310;30;20052;-69
2022/07/11 13:49:59;;;;;;;8.45;1.00;;;20.90;99.90;;;;;;4738448;30;20509;-73
2022/07/11 13:52:37;;;;;;;2.17;0.65;;;20.80;99.90;;;;;;4739230;30;20058;-79
2022/07/11 13:55:06;;;;;;;0.65;0.52;;;20.90;99.90;;;;;;4723788;30;20052;-73
2022/07/11 13:57:34;;;;;;;2.20;0.75;;;21.10;99.90;;;;;;4753453;30;20051;-71
2022/07/11 13:59:59;;;;;;;1.38;0.90;;;21.40;99.90;;;;;;4736639;30;20087;-71
2022/07/11 14:02:25;;;;;;;;;;;21.60;99.90;;;;;;4752040;30;20079;-70
2022/07/11 14:04:51;;;;;;;2.45;1.20;;;21.40;99.50;;;;;;4738983;30;19922;-72
2022/07/11 14:07:17;;;;;;;;;;;21.50;99.90;;;;;;4755922;30;20107;-72
2022/07/11 14:09:43;;;;;;;6.32;1.27;;;21.50;99.90;;;;;;4755922;30;19933;-71
2022/07/11 14:12:09;;;;;;;8.23;1.55;;;21.50;99.90;;;;;;4756749;30;20453;-75
2022/07/11 14:14:34;;;;;;;;;;;21.30;99.90;;;;;;4743150;30;20051;-71
2022/07/11 14:17:01;;;;;;;2.65;0.82;;;21.20;99.90;;;;;;4757444;30;19921;-71
2022/07/11 14:19:27;;;;;;;3.63;1.23;;;21.10;99.90;;;;;;4757450;30;20056;-72
2022/07/11 14:21:53;;;;;;;;;;;21.00;99.90;;;;;;4739824;30;20048;-71
2022/07/11 14:24:19;;;;;;;3.83;0.80;;;21.10;99.90;;;;;;4755666;30;20272;-72
2022/07/11 14:26:44;;;;;;;;;;;21.00;99.90;;;;;;4738925;30;20201;-72
2022/07/11 14:29:10;;;;;;;11.05;1.40;;;20.80;99.90;;;;;;4739718;30;20020;-72
2022/07/11 14:31:37;;;;;;;2.92;1.10;;;20.80;99.90;;;;;;4751872;30;20056;-72
2022/07/11 14:34:03;;;;;;;1.85;1.00;;;20.80;99.90;;;;;;4772753;30;20385;-72
2022/07/11 14:36:29;;;;;;;4.07;1.20;;;20.70;99.90;;;;;;4754922;30;20127;-72
2022/07/11 14:38:55;;;;;;;3.20;1.17;;;20.60;99.90;;;;;;4739254;30;20131;-72
2022/07/11 14:41:21;;;;;;;4.63;1.00;;;20.60;99.90;;;;;;4735089;30;20062;-72
2022/07/11 14:43:48;;;;;;;;;;;20.60;99.90;;;;;;4743288;30;20126;-72
2022/07/11 14:46:15;;;;;;;1.98;0.90;;;20.60;99.90;;;;;;4744838;30;19958;-72
2022/07/11 14:48:42;;;;;;;3.10;0.80;;;20.70;99.90;;;;;;4754934;30;20048;-72
2022/07/11 14:51:08;;;;;;;3.88;1.25;;;20.50;99.90;;;;;;4763087;30;20058;-72
2022/07/11 14:53:34;;;;;;;4.30;1.25;;;20.50;99.90;;;;;;4739053;30;20040;-72
2022/07/11 14:55:59;;;;;;;;;;;20.60;99.90;;;;;;4722011;30;20057;-72
2022/07/11 14:58:25;;;;;;;2.38;1.08;;;20.60;99.90;;;;;;4736050;30;20001;-72
2022/07/11 15:00:50;;;;;;;;;;;20.40;99.90;;;;;;4742593;30;20048;-72
2022/07/11 15:06:00;;;;;;;3.65;1.30;;;20.40;99.90;;;;;;4756450;30;20069;-72
2022/07/11 15:13:55;;;;;;;2.13;1.13;;;20.60;99.90;;;;;;4738753;30;20100;-69
2022/07/11 15:16:21;;;;;;;4.57;1.25;;;20.60;99.90;;;;;;4738793;30;20055;-75
2022/07/11 15:18:50;;;;;;;4.13;1.27;;;20.50;99.90;;;;;;4769309;30;20363;-74
2022/07/11 15:21:18;;;;;;;2.50;1.13;;;20.40;99.90;;;;;;4741731;30;20043;-74
2022/07/11 15:23:44;;;;;;;2.55;1.00;;;20.40;99.90;;;;;;4755874;30;20135;-75
2022/07/11 15:26:16;;;;;;;2.60;1.30;;;20.30;99.90;;;;;;4755989;30;20382;-78
2022/07/11 15:28:46;;;;;;;3.67;1.27;;;20.20;99.90;;;;;;4755055;30;20051;-77
2022/07/11 15:31:13;;;;;;;3.97;1.20;;;20.20;99.90;;;;;;4735881;30;20088;-74
2022/07/11 15:33:40;;;;;;;2.00;0.90;;;20.20;99.90;;;;;;4717574;30;20546;-75
2022/07/11 15:36:06;;;;;;;4.32;1.00;;;20.30;99.90;;;;;;4727794;30;20045;-79
2022/07/11 15:38:32;;;;;;;5.60;1.25;;;20.40;99.90;;;;;;4719677;30;20099;-78
2022/07/11 15:40:58;;;;;;;6.93;1.17;;;20.40;99.90;;;;;;4728475;30;20075;-78
2022/07/11 15:43:27;;;;;;;4.88;1.10;;;20.30;99.90;;;;;;4737752;30;20070;-78
2022/07/11 15:45:52;;;;;;;4.45;1.20;;;20.20;99.90;;;;;;4722275;30;20429;-77
2022/07/11 15:48:18;;;;;;;2.30;0.90;;;20.20;99.90;;;;;;4736402;30;20061;-77
2022/07/11 15:50:44;;;;;;;2.95;1.10;;;20.40;99.90;;;;;;4739222;30;20134;-76
2022/07/11 15:53:11;;;;;;;8.45;1.30;;;20.50;99.90;;;;;;4733971;30;20435;-76
2022/07/11 15:55:36;;;;;;;7.38;1.98;;;20.50;99.90;;;;;;4753356;30;20048;-76
2022/07/11 15:58:03;;;;;;;9.40;1.45;;;20.50;99.90;;;;;;4723145;30;20131;-79
2022/07/11 16:00:34;;;;;;;;;;;20.70;99.90;;;;;;4724339;30;20091;-74
2022/07/11 16:03:00;;;;;;;3.58;1.00;;;20.80;99.90;;;;;;4728346;30;19972;-76
2022/07/11 16:05:27;;;;;;;1.67;0.90;;;20.90;99.90;;;;;;4739008;30;20520;-76
2022/07/11 16:07:52;;;;;;;4.18;1.02;;;21.00;99.90;;;;;;4727594;30;20402;-76
2022/07/11 16:10:21;;;;;;;3.53;1.00;;;21.00;99.90;;;;;;4732693;30;20047;-75
2022/07/11 16:12:47;;;;;;;3.53;1.10;;;20.90;99.90;;;;;;4737669;30;20088;-75
2022/07/11 16:15:13;;;;;;;4.55;1.13;;;20.80;99.90;;;;;;4737460;30;20079;-76
2022/07/11 16:17:39;;;;;;;2.90;0.95;;;20.60;99.90;;;;;;4737285;30;20052;-74
2022/07/11 16:20:06;;;;;;;3.95;1.27;;;20.60;99.90;;;;;;4722452;30;20109;-74
2022/07/11 16:22:31;;;;;;;4.53;1.10;;;20.30;99.90;;;;;;4737138;30;20056;-76
2022/07/11 16:24:59;;;;;;;4.57;1.13;;;20.20;99.90;;;;;;4743698;30;20044;-77
2022/07/11 16:27:27;;;;;;;3.45;1.20;;;20.10;99.90;;;;;;4755114;30;20044;-78
2022/07/11 16:29:56;;;;;;;4.43;1.20;;;20.20;99.90;;;;;;4740643;30;20052;-81
2022/07/11 16:32:31;;;;;;;7.43;1.42;;;20.30;99.90;;;;;;4740645;30;20040;-80
2022/07/11 16:35:08;;;;;;;2.35;0.80;;;20.30;99.90;;;;;;4730446;30;20045;-80
2022/07/11 16:37:34;;;;;;;3.88;1.10;;;20.30;99.90;;;;;;4746502;30;20112;-75
2022/07/11 16:45:29;;;;;;;2.22;1.05;;;19.90;99.90;;;;;;4747074;30;20482;-76
2022/07/11 16:47:54;;;;;;;1.92;1.00;;;19.90;99.90;;;;;;4739700;30;20056;-75
2022/07/11 16:50:20;;;;;;;4.53;1.10;;;19.90;99.90;;;;;;4754345;30;20393;-78
2022/07/11 16:52:45;;;;;;;;;;;19.90;99.90;;;;;;4740961;30;20055;-78
2022/07/11 16:55:11;;;;;;;2.45;1.00;;;20.00;99.90;;;;;;4743958;30;19999;-78
2022/07/11 16:57:37;;;;;;;5.25;1.30;;;20.00;99.90;;;;;;4747587;30;20109;-78
2022/07/11 17:00:04;;;;;;;4.28;1.48;;;20.10;99.90;;;;;;4729261;30;20076;-80
2022/07/11 17:02:30;;;;;;;7.78;1.30;;;20.20;99.90;;;;;;4740966;30;20537;-80
2022/07/11 17:04:56;;;;;;;4.10;1.10;;;20.00;99.90;;;;;;4740150;30;20138;-79
2022/07/11 17:07:22;;;;;;;6.32;1.40;;;20.00;99.90;;;;;;4754621;30;20466;-78
2022/07/11 17:09:47;;;;;;;3.17;1.10;;;20.00;99.90;;;;;;4739770;30;20088;-80
2022/07/11 17:12:13;;;;;;;2.72;1.10;;;19.90;99.90;;;;;;4760842;30;20038;-80
2022/07/11 17:14:39;;;;;;;2.22;1.02;;;19.70;99.90;;;;;;4744713;30;20056;-80
2022/07/11 17:17:05;;;;;;;1.92;1.10;;;19.80;99.90;;;;;;4736956;30;20134;-78
2022/07/11 17:19:30;;;;;;;1.45;0.80;;;19.70;99.90;;;;;;4737480;30;20059;-79
2022/07/11 17:22:02;;;;;;;1.85;1.00;;;19.70;99.90;;;;;;4737505;30;20059;-78
2022/07/11 17:24:29;;;;;;;6.47;1.02;;;19.70;99.90;;;;;;4719938;30;20052;-79
2022/07/11 17:26:54;;;;;;;5.05;1.10;;;19.60;99.90;;;;;;4719637;30;20051;-78
2022/07/11 17:29:20;;;;;;;4.85;1.02;;;19.40;99.90;;;;;;4720520;30;20048;-78
2022/07/11 17:31:47;;;;;;;2.03;0.90;;;19.20;99.90;;;;;;4736796;30;20424;-79
2022/07/11 17:34:19;;;;;;;2.65;1.10;;;19.20;99.90;;;;;;4752362;30;20393;-78
2022/07/11 17:36:44;;;;;;;3.58;1.20;;;19.10;99.90;;;;;;4739625;30;20054;-77
2022/07/11 17:39:15;;;;;;;6.07;1.75;;;19.00;99.90;;;;;;4735552;30;20047;-77
2022/07/11 17:41:41;;;;;;;5.13;1.58;;;18.80;99.90;;;;;;4727732;30;20048;-78
2022/07/11 17:44:07;;;;;;;2.92;1.23;;;18.80;99.90;;;;;;4740405;30;20497;-80
2022/07/11 17:46:33;;;;;;;4.05;1.30;;;18.80;99.90;;;;;;4739969;30;20122;-78
2022/07/11 17:48:58;;;;;;;2.33;1.20;;;18.80;99.90;;;;;;4717944;30;20045;-78
2022/07/11 17:51:24;;;;;;;4.45;1.38;;;18.60;99.90;;;;;;4704380;30;20510;-77
2022/07/11 17:53:51;;;;;;;3.00;1.55;;;18.60;99.90;;;;;;4705113;30;20044;-76
2022/07/11 17:57:13;;;;;;;2.33;1.40;;;18.50;99.90;;;;;;4719098;30;20386;-77
2022/07/11 18:00:51;;;;;;;2.97;1.50;;;18.50;99.90;;;;;;4720237;30;20048;-77
2022/07/11 18:04:23;;;;;;;2.20;1.30;;;18.40;99.90;;;;;;4720922;30;20049;-78
2022/07/11 18:07:29;;;;;;;2.92;1.33;;;18.40;99.90;;;;;;4709928;30;20202;-78
2022/07/11 18:17:33;;;;;;;4.38;1.20;;;18.30;99.90;;;;;;4615373;31;20088;-80
2022/07/11 18:20:43;;;;;;;3.17;1.27;;;18.20;99.90;;;;;;4630558;30;20445;-78
2022/07/11 18:24:06;;;;;;;;;;;;;;;;;;;;;
2022/07/11 18:27:27;;;;;;;6.05;1.60;;;18.10;99.90;;;;;;4702537;30;20403;-79
2022/07/11 18:30:16;;;;;;;4.43;1.70;;;18.10;99.90;;;;;;4701811;30;20505;-79
2022/07/11 18:37:14;;;;;;;7.57;1.60;;;17.90;99.90;;;;;;4720433;30;20419;-80
2022/07/11 18:43:24;;;;;;;;;;;17.90;99.90;;;;;;4737226;30;20450;-79
2022/07/11 18:50:17;;;;;;;4.47;1.95;;;17.70;99.90;;;;;;4717532;30;20049;-79
2022/07/11 18:52:43;;;;;;;2.58;1.38;;;17.70;99.90;;;;;;4710050;30;20044;-77
2022/07/11 18:55:43;;;;;;;1.77;1.42;;;17.70;99.90;;;;;;4752572;30;20385;-78
2022/07/11 18:58:28;;;;;;;4.97;1.98;;;17.70;99.90;;;;;;4712840;30;20447;-77
2022/07/11 19:00:59;;;;;;;3.40;1.58;;;17.70;99.90;;;;;;4719487;30;20139;-77
2022/07/11 19:03:41;;;;;;;5.20;1.80;;;17.70;99.90;;;;;;4727199;30;20050;-77
2022/07/11 19:06:09;;;;;;;4.47;1.50;;;17.70;99.90;;;;;;4727254;30;20235;-78
2022/07/11 19:08:38;;;;;;;2.67;1.52;;;17.70;99.90;;;;;;4719810;30;20032;-77
2022/07/11 19:11:06;;;;;;;4.30;1.90;;;17.70;99.90;;;;;;4720188;30;20063;-79
2022/07/11 19:13:54;;;;;;;2.72;1.58;;;17.60;99.90;;;;;;4733535;30;20494;-78
2022/07/11 19:16:26;;;;;;;3.05;1.67;;;17.60;99.90;;;;;;4744490;30;20054;-79
2022/07/11 19:18:55;;;;;;;3.58;1.67;;;17.50;99.90;;;;;;4741768;30;20048;-78
2022/07/11 19:21:31;;;;;;;4.93;2.10;;;17.50;99.90;;;;;;4728684;30;20035;-78
2022/07/11 19:24:07;;;;;;;4.82;1.90;;;17.50;99.90;;;;;;4741922;30;20065;-77
2022/07/11 19:26:36;;;;;;;2.67;1.75;;;17.40;99.90;;;;;;4738987;30;20090;-78
2022/07/11 19:29:23;;;;;;;4.25;1.90;;;17.40;99.90;;;;;;4724884;30;20062;-78
2022/07/11 19:31:51;;;;;;;4.57;2.20;;;17.40;99.90;;;;;;4724660;30;20063;-79
2022/07/11 19:34:35;;;;;;;3.55;2.15;;;17.30;99.90;;;;;;4734629;30;20040;-78
2022/07/11 19:37:04;;;;;;;4.07;1.80;;;17.20;99.90;;;;;;4694737;30;20503;-82
2022/07/11 19:39:41;;;;;;;4.53;1.73;;;17.30;99.90;;;;;;4723094;30;20141;-74
2022/07/11 19:42:17;;;;;;;6.03;2.03;;;17.30;99.90;;;;;;4732497;30;20032;-74
2022/07/11 19:44:49;;;;;;;2.95;1.92;;;17.20;99.90;;;;;;4753243;30;20054;-75